sensor_id;sensor_type;location;lat;lon;timestamp;P1;durP1;ratioP1;P2;durP2;ratioP2
23614;SDS011;11985;49.404;7.734;2022-08-21T00:01:55;9.60;;;3.53;;
23614;SDS011;11985;49.404;7.734;2022-08-21T00:03:57;6.55;;;2.80;;
23614;SDS011;11985;49.404;7.734;2022-08-21T00:06:00;5.28;;;2.85;;
23614;SDS011;11985;49.404;7.734;2022-08-21T00:08:02;4.35;;;2.22;;
23614;SDS011;11985;49.404;7.734;2022-08-21T00:10:05;6.40;;;2.58;;
23614;SDS011;11985;49.404;7.734;2022-08-21T00:12:07;7.53;;;2.67;;
23614;SDS011;11985;49.404;7.734;2022-08-21T00:14:09;5.43;;;2.60;;
23614;SDS011;11985;49.404;7.734;2022-08-21T00:16:14;5.60;;;2.78;;
23614;SDS011;11985;49.404;7.734;2022-08-21T00:18:16;8.80;;;3.03;;
23614;SDS011;11985;49.404;7.734;2022-08-21T00:20:19;7.13;;;2.78;;
23614;SDS011;11985;49.404;7.734;2022-08-21T00:22:23;6.10;;;2.65;;
23614;SDS011;11985;49.404;7.734;2022-08-21T00:24:24;5.68;;;2.80;;
23614;SDS011;11985;49.404;7.734;2022-08-21T00:26:27;4.47;;;2.60;;
23614;SDS011;11985;49.404;7.734;2022-08-21T00:28:29;11.05;;;2.60;;
23614;SDS011;11985;49.404;7.734;2022-08-21T00:30:32;4.93;;;2.75;;
23614;SDS011;11985;49.404;7.734;2022-08-21T00:32:37;7.07;;;2.60;;
23614;SDS011;11985;49.404;7.734;2022-08-21T00:34:39;5.95;;;2.90;;
23614;SDS011;11985;49.404;7.734;2022-08-21T00:36:41;5.57;;;2.70;;
23614;SDS011;11985;49.404;7.734;2022-08-21T00:38:45;6.88;;;2.50;;
23614;SDS011;11985;49.404;7.734;2022-08-21T00:40:48;5.38;;;2.72;;
23614;SDS011;11985;49.404;7.734;2022-08-21T00:42:52;13.63;;;3.70;;
23614;SDS011;11985;49.404;7.734;2022-08-21T00:44:55;8.00;;;3.08;;
23614;SDS011;11985;49.404;7.734;2022-08-21T00:48:58;6.57;;;2.97;;
23614;SDS011;11985;49.404;7.734;2022-08-21T00:51:02;5.25;;;2.83;;
23614;SDS011;11985;49.404;7.734;2022-08-21T00:53:06;7.35;;;3.30;;
23614;SDS011;11985;49.404;7.734;2022-08-21T00:55:10;5.43;;;2.78;;
23614;SDS011;11985;49.404;7.734;2022-08-21T00:57:14;5.93;;;3.28;;
23614;SDS011;11985;49.404;7.734;2022-08-21T00:59:19;6.05;;;3.05;;
23614;SDS011;11985;49.404;7.734;2022-08-21T01:01:22;7.35;;;2.90;;
23614;SDS011;11985;49.404;7.734;2022-08-21T01:05:25;12.48;;;3.25;;
23614;SDS011;11985;49.404;7.734;2022-08-21T01:07:27;6.07;;;2.97;;
23614;SDS011;11985;49.404;7.734;2022-08-21T01:09:30;6.63;;;3.30;;
23614;SDS011;11985;49.404;7.734;2022-08-21T01:11:33;9.57;;;3.42;;
23614;SDS011;11985;49.404;7.734;2022-08-21T01:13:36;10.73;;;2.92;;
23614;SDS011;11985;49.404;7.734;2022-08-21T01:15:46;5.95;;;3.00;;
23614;SDS011;11985;49.404;7.734;2022-08-21T01:17:49;7.50;;;3.53;;
23614;SDS011;11985;49.404;7.734;2022-08-21T01:19:52;7.28;;;3.35;;
23614;SDS011;11985;49.404;7.734;2022-08-21T01:21:59;7.55;;;3.22;;
23614;SDS011;11985;49.404;7.734;2022-08-21T01:24:01;8.20;;;3.70;;
23614;SDS011;11985;49.404;7.734;2022-08-21T01:26:03;8.90;;;3.28;;
23614;SDS011;11985;49.404;7.734;2022-08-21T01:28:07;6.15;;;3.13;;
23614;SDS011;11985;49.404;7.734;2022-08-21T01:30:13;9.52;;;3.17;;
23614;SDS011;11985;49.404;7.734;2022-08-21T01:32:19;4.93;;;3.13;;
23614;SDS011;11985;49.404;7.734;2022-08-21T01:34:21;7.53;;;2.85;;
23614;SDS011;11985;49.404;7.734;2022-08-21T01:36:24;7.30;;;3.70;;
23614;SDS011;11985;49.404;7.734;2022-08-21T01:38:27;10.75;;;3.85;;
23614;SDS011;11985;49.404;7.734;2022-08-21T01:40:29;7.80;;;3.45;;
23614;SDS011;11985;49.404;7.734;2022-08-21T01:42:30;7.32;;;3.25;;
23614;SDS011;11985;49.404;7.734;2022-08-21T01:44:32;8.90;;;3.53;;
23614;SDS011;11985;49.404;7.734;2022-08-21T01:46:34;9.63;;;3.40;;
23614;SDS011;11985;49.404;7.734;2022-08-21T01:48:36;7.95;;;3.38;;
23614;SDS011;11985;49.404;7.734;2022-08-21T01:50:38;5.28;;;3.50;;
23614;SDS011;11985;49.404;7.734;2022-08-21T01:52:40;7.22;;;3.33;;
23614;SDS011;11985;49.404;7.734;2022-08-21T01:54:43;7.95;;;3.40;;
23614;SDS011;11985;49.404;7.734;2022-08-21T01:56:46;9.40;;;3.30;;
23614;SDS011;11985;49.404;7.734;2022-08-21T01:58:50;9.88;;;3.65;;
23614;SDS011;11985;49.404;7.734;2022-08-21T02:00:51;11.55;;;4.25;;
23614;SDS011;11985;49.404;7.734;2022-08-21T02:02:53;7.25;;;3.53;;
23614;SDS011;11985;49.404;7.734;2022-08-21T02:04:55;9.90;;;3.33;;
23614;SDS011;11985;49.404;7.734;2022-08-21T02:06:57;7.60;;;3.40;;
23614;SDS011;11985;49.404;7.734;2022-08-21T02:08:59;7.28;;;3.72;;
23614;SDS011;11985;49.404;7.734;2022-08-21T02:11:03;7.13;;;3.53;;
23614;SDS011;11985;49.404;7.734;2022-08-21T02:13:06;11.27;;;3.83;;
23614;SDS011;11985;49.404;7.734;2022-08-21T02:15:09;7.13;;;3.47;;
23614;SDS011;11985;49.404;7.734;2022-08-21T02:17:10;9.57;;;3.25;;
23614;SDS011;11985;49.404;7.734;2022-08-21T02:21:15;7.72;;;3.47;;
23614;SDS011;11985;49.404;7.734;2022-08-21T02:23:17;9.40;;;3.83;;
23614;SDS011;11985;49.404;7.734;2022-08-21T02:25:19;9.20;;;3.95;;
23614;SDS011;11985;49.404;7.734;2022-08-21T02:27:23;10.80;;;3.75;;
23614;SDS011;11985;49.404;7.734;2022-08-21T02:29:26;7.30;;;3.50;;
23614;SDS011;11985;49.404;7.734;2022-08-21T02:31:28;7.97;;;3.35;;
23614;SDS011;11985;49.404;7.734;2022-08-21T02:33:31;17.25;;;4.32;;
23614;SDS011;11985;49.404;7.734;2022-08-21T02:35:33;9.32;;;4.07;;
23614;SDS011;11985;49.404;7.734;2022-08-21T02:37:41;6.43;;;3.60;;
23614;SDS011;11985;49.404;7.734;2022-08-21T02:39:44;7.07;;;3.97;;
23614;SDS011;11985;49.404;7.734;2022-08-21T02:41:47;10.98;;;4.07;;
23614;SDS011;11985;49.404;7.734;2022-08-21T02:43:50;7.07;;;3.50;;
23614;SDS011;11985;49.404;7.734;2022-08-21T02:45:52;7.82;;;3.47;;
23614;SDS011;11985;49.404;7.734;2022-08-21T02:47:55;9.48;;;4.18;;
23614;SDS011;11985;49.404;7.734;2022-08-21T02:49:58;9.48;;;4.15;;
23614;SDS011;11985;49.404;7.734;2022-08-21T02:52:08;7.80;;;3.95;;
23614;SDS011;11985;49.404;7.734;2022-08-21T02:54:16;8.48;;;4.03;;
23614;SDS011;11985;49.404;7.734;2022-08-21T02:56:31;7.60;;;4.07;;
23614;SDS011;11985;49.404;7.734;2022-08-21T02:58:53;9.15;;;4.10;;
23614;SDS011;11985;49.404;7.734;2022-08-21T03:01:11;9.15;;;3.75;;
23614;SDS011;11985;49.404;7.734;2022-08-21T03:03:16;7.65;;;3.53;;
23614;SDS011;11985;49.404;7.734;2022-08-21T03:05:35;7.20;;;3.70;;
23614;SDS011;11985;49.404;7.734;2022-08-21T03:07:48;10.77;;;3.72;;
23614;SDS011;11985;49.404;7.734;2022-08-21T03:10:21;8.63;;;3.65;;
23614;SDS011;11985;49.404;7.734;2022-08-21T03:12:39;6.55;;;3.78;;
23614;SDS011;11985;49.404;7.734;2022-08-21T03:15:11;5.90;;;3.55;;
23614;SDS011;11985;49.404;7.734;2022-08-21T03:17:19;7.82;;;3.90;;
23614;SDS011;11985;49.404;7.734;2022-08-21T03:19:49;6.95;;;3.70;;
23614;SDS011;11985;49.404;7.734;2022-08-21T03:21:58;9.18;;;3.80;;
23614;SDS011;11985;49.404;7.734;2022-08-21T03:24:35;8.38;;;3.60;;
23614;SDS011;11985;49.404;7.734;2022-08-21T03:26:50;8.85;;;4.00;;
23614;SDS011;11985;49.404;7.734;2022-08-21T03:29:17;7.32;;;3.72;;
23614;SDS011;11985;49.404;7.734;2022-08-21T03:31:31;8.73;;;3.60;;
23614;SDS011;11985;49.404;7.734;2022-08-21T03:33:52;13.27;;;4.10;;
23614;SDS011;11985;49.404;7.734;2022-08-21T03:36:04;6.03;;;3.80;;
23614;SDS011;11985;49.404;7.734;2022-08-21T03:38:12;10.82;;;4.43;;
23614;SDS011;11985;49.404;7.734;2022-08-21T03:40:26;7.00;;;4.63;;
23614;SDS011;11985;49.404;7.734;2022-08-21T03:42:36;8.00;;;4.15;;
23614;SDS011;11985;49.404;7.734;2022-08-21T03:44:52;9.52;;;4.05;;
23614;SDS011;11985;49.404;7.734;2022-08-21T03:47:02;8.50;;;4.07;;
23614;SDS011;11985;49.404;7.734;2022-08-21T03:49:22;9.38;;;4.40;;
23614;SDS011;11985;49.404;7.734;2022-08-21T03:51:32;10.40;;;4.07;;
23614;SDS011;11985;49.404;7.734;2022-08-21T03:53:44;10.23;;;3.92;;
23614;SDS011;11985;49.404;7.734;2022-08-21T03:56:06;8.35;;;4.18;;
23614;SDS011;11985;49.404;7.734;2022-08-21T03:58:16;12.80;;;4.22;;
23614;SDS011;11985;49.404;7.734;2022-08-21T04:00:41;9.88;;;4.13;;
23614;SDS011;11985;49.404;7.734;2022-08-21T04:02:59;8.25;;;3.85;;
23614;SDS011;11985;49.404;7.734;2022-08-21T04:05:06;9.60;;;4.32;;
23614;SDS011;11985;49.404;7.734;2022-08-21T04:07:19;6.82;;;3.95;;
23614;SDS011;11985;49.404;7.734;2022-08-21T04:09:33;9.75;;;4.32;;
23614;SDS011;11985;49.404;7.734;2022-08-21T04:11:55;7.63;;;4.10;;
23614;SDS011;11985;49.404;7.734;2022-08-21T04:14:08;8.43;;;3.78;;
23614;SDS011;11985;49.404;7.734;2022-08-21T04:16:32;10.75;;;4.15;;
23614;SDS011;11985;49.404;7.734;2022-08-21T04:18:45;11.02;;;4.13;;
23614;SDS011;11985;49.404;7.734;2022-08-21T04:21:13;8.30;;;4.15;;
23614;SDS011;11985;49.404;7.734;2022-08-21T04:23:23;8.10;;;3.85;;
23614;SDS011;11985;49.404;7.734;2022-08-21T04:25:42;12.50;;;4.45;;
23614;SDS011;11985;49.404;7.734;2022-08-21T04:27:50;8.55;;;4.00;;
23614;SDS011;11985;49.404;7.734;2022-08-21T04:30:03;8.68;;;4.03;;
23614;SDS011;11985;49.404;7.734;2022-08-21T04:32:10;11.18;;;4.22;;
23614;SDS011;11985;49.404;7.734;2022-08-21T04:34:23;7.43;;;4.05;;
23614;SDS011;11985;49.404;7.734;2022-08-21T04:36:42;11.07;;;4.57;;
23614;SDS011;11985;49.404;7.734;2022-08-21T04:38:48;8.27;;;4.22;;
23614;SDS011;11985;49.404;7.734;2022-08-21T04:41:07;8.68;;;3.95;;
23614;SDS011;11985;49.404;7.734;2022-08-21T04:43:15;9.30;;;4.07;;
23614;SDS011;11985;49.404;7.734;2022-08-21T04:45:36;6.10;;;3.90;;
23614;SDS011;11985;49.404;7.734;2022-08-21T04:47:55;9.15;;;4.18;;
23614;SDS011;11985;49.404;7.734;2022-08-21T04:50:24;10.73;;;4.47;;
23614;SDS011;11985;49.404;7.734;2022-08-21T04:52:48;7.40;;;3.83;;
23614;SDS011;11985;49.404;7.734;2022-08-21T04:55:01;6.28;;;3.72;;
23614;SDS011;11985;49.404;7.734;2022-08-21T04:57:15;12.10;;;4.63;;
23614;SDS011;11985;49.404;7.734;2022-08-21T04:59:37;7.90;;;3.92;;
23614;SDS011;11985;49.404;7.734;2022-08-21T05:02:02;7.82;;;4.07;;
23614;SDS011;11985;49.404;7.734;2022-08-21T05:04:25;7.47;;;3.80;;
23614;SDS011;11985;49.404;7.734;2022-08-21T05:06:44;10.43;;;4.13;;
23614;SDS011;11985;49.404;7.734;2022-08-21T05:08:53;10.85;;;4.40;;
23614;SDS011;11985;49.404;7.734;2022-08-21T05:11:10;7.77;;;3.93;;
23614;SDS011;11985;49.404;7.734;2022-08-21T05:13:22;14.23;;;4.18;;
23614;SDS011;11985;49.404;7.734;2022-08-21T05:15:32;8.82;;;4.70;;
23614;SDS011;11985;49.404;7.734;2022-08-21T05:17:55;15.38;;;4.30;;
23614;SDS011;11985;49.404;7.734;2022-08-21T05:20:03;13.67;;;4.07;;
23614;SDS011;11985;49.404;7.734;2022-08-21T05:22:22;8.30;;;4.68;;
23614;SDS011;11985;49.404;7.734;2022-08-21T05:24:28;8.30;;;4.57;;
23614;SDS011;11985;49.404;7.734;2022-08-21T05:26:42;9.85;;;4.95;;
23614;SDS011;11985;49.404;7.734;2022-08-21T05:28:47;13.57;;;4.57;;
23614;SDS011;11985;49.404;7.734;2022-08-21T05:31:00;11.43;;;4.43;;
23614;SDS011;11985;49.404;7.734;2022-08-21T05:33:04;8.85;;;4.72;;
23614;SDS011;11985;49.404;7.734;2022-08-21T05:35:10;8.90;;;4.40;;
23614;SDS011;11985;49.404;7.734;2022-08-21T05:37:23;9.25;;;4.10;;
23614;SDS011;11985;49.404;7.734;2022-08-21T05:39:45;15.63;;;4.40;;
23614;SDS011;11985;49.404;7.734;2022-08-21T05:42:02;12.95;;;4.90;;
23614;SDS011;11985;49.404;7.734;2022-08-21T05:44:18;10.35;;;4.53;;
23614;SDS011;11985;49.404;7.734;2022-08-21T05:46:35;7.22;;;3.95;;
23614;SDS011;11985;49.404;7.734;2022-08-21T05:49:02;8.48;;;4.00;;
23614;SDS011;11985;49.404;7.734;2022-08-21T05:51:23;7.68;;;3.95;;
23614;SDS011;11985;49.404;7.734;2022-08-21T05:53:40;11.52;;;4.47;;
23614;SDS011;11985;49.404;7.734;2022-08-21T05:55:55;7.80;;;4.38;;
23614;SDS011;11985;49.404;7.734;2022-08-21T05:58:03;7.05;;;4.32;;
23614;SDS011;11985;49.404;7.734;2022-08-21T06:00:08;7.68;;;4.00;;
23614;SDS011;11985;49.404;7.734;2022-08-21T06:02:17;6.03;;;4.10;;
23614;SDS011;11985;49.404;7.734;2022-08-21T06:04:21;7.43;;;4.53;;
23614;SDS011;11985;49.404;7.734;2022-08-21T06:06:35;10.55;;;4.07;;
23614;SDS011;11985;49.404;7.734;2022-08-21T06:08:53;9.75;;;3.95;;
23614;SDS011;11985;49.404;7.734;2022-08-21T06:11:02;6.88;;;3.58;;
23614;SDS011;11985;49.404;7.734;2022-08-21T06:13:23;9.30;;;3.78;;
23614;SDS011;11985;49.404;7.734;2022-08-21T06:15:48;9.30;;;4.00;;
23614;SDS011;11985;49.404;7.734;2022-08-21T06:18:05;9.68;;;3.70;;
23614;SDS011;11985;49.404;7.734;2022-08-21T06:20:19;10.68;;;3.67;;
23614;SDS011;11985;49.404;7.734;2022-08-21T06:22:23;8.45;;;4.65;;
23614;SDS011;11985;49.404;7.734;2022-08-21T06:24:32;8.35;;;3.80;;
23614;SDS011;11985;49.404;7.734;2022-08-21T06:26:37;8.18;;;3.47;;
23614;SDS011;11985;49.404;7.734;2022-08-21T06:28:42;9.60;;;3.90;;
23614;SDS011;11985;49.404;7.734;2022-08-21T06:31:09;6.63;;;3.72;;
23614;SDS011;11985;49.404;7.734;2022-08-21T06:37:01;7.88;;;3.50;;
23614;SDS011;11985;49.404;7.734;2022-08-21T06:53:58;5.60;;;3.13;;
23614;SDS011;11985;49.404;7.734;2022-08-21T06:56:38;7.40;;;3.80;;
23614;SDS011;11985;49.404;7.734;2022-08-21T06:58:58;8.65;;;3.30;;
23614;SDS011;11985;49.404;7.734;2022-08-21T07:01:36;8.02;;;3.35;;
23614;SDS011;11985;49.404;7.734;2022-08-21T07:04:09;8.35;;;3.00;;
23614;SDS011;11985;49.404;7.734;2022-08-21T07:06:36;5.85;;;3.33;;
23614;SDS011;11985;49.404;7.734;2022-08-21T07:14:42;5.57;;;2.90;;
23614;SDS011;11985;49.404;7.734;2022-08-21T07:19:09;5.75;;;3.05;;
23614;SDS011;11985;49.404;7.734;2022-08-21T07:20:10;8.90;;;3.20;;
23614;SDS011;11985;49.404;7.734;2022-08-21T07:22:50;8.75;;;3.17;;
23614;SDS011;11985;49.404;7.734;2022-08-21T07:25:05;8.32;;;2.60;;
23614;SDS011;11985;49.404;7.734;2022-08-21T07:27:36;10.15;;;3.47;;
23614;SDS011;11985;49.404;7.734;2022-08-21T07:30:16;7.85;;;3.15;;
23614;SDS011;11985;49.404;7.734;2022-08-21T07:32:35;8.35;;;3.30;;
23614;SDS011;11985;49.404;7.734;2022-08-21T07:35:06;9.82;;;2.88;;
23614;SDS011;11985;49.404;7.734;2022-08-21T07:37:29;8.98;;;3.38;;
23614;SDS011;11985;49.404;7.734;2022-08-21T07:39:56;6.63;;;3.00;;
23614;SDS011;11985;49.404;7.734;2022-08-21T07:48:19;6.45;;;2.88;;
23614;SDS011;11985;49.404;7.734;2022-08-21T07:54:05;6.63;;;2.65;;
23614;SDS011;11985;49.404;7.734;2022-08-21T07:56:30;5.47;;;2.55;;
23614;SDS011;11985;49.404;7.734;2022-08-21T07:58:53;10.70;;;2.95;;
23614;SDS011;11985;49.404;7.734;2022-08-21T08:06:58;7.57;;;2.63;;
23614;SDS011;11985;49.404;7.734;2022-08-21T08:09:37;7.80;;;2.88;;
23614;SDS011;11985;49.404;7.734;2022-08-21T08:12:47;9.07;;;2.88;;
23614;SDS011;11985;49.404;7.734;2022-08-21T08:21:03;7.10;;;3.03;;
23614;SDS011;11985;49.404;7.734;2022-08-21T08:26:24;7.55;;;2.72;;
23614;SDS011;11985;49.404;7.734;2022-08-21T08:34:09;8.63;;;2.80;;
23614;SDS011;11985;49.404;7.734;2022-08-21T08:36:56;12.25;;;2.97;;
23614;SDS011;11985;49.404;7.734;2022-08-21T08:39:35;10.00;;;2.65;;
23614;SDS011;11985;49.404;7.734;2022-08-21T08:42:03;7.35;;;2.55;;
23614;SDS011;11985;49.404;7.734;2022-08-21T08:44:17;8.15;;;2.65;;
23614;SDS011;11985;49.404;7.734;2022-08-21T08:46:47;7.00;;;2.50;;
23614;SDS011;11985;49.404;7.734;2022-08-21T08:51:18;7.10;;;2.80;;
23614;SDS011;11985;49.404;7.734;2022-08-21T08:53:51;10.52;;;2.80;;
23614;SDS011;11985;49.404;7.734;2022-08-21T08:55:56;6.03;;;2.28;;
23614;SDS011;11985;49.404;7.734;2022-08-21T08:57:58;8.48;;;2.40;;
23614;SDS011;11985;49.404;7.734;2022-08-21T09:00:05;9.32;;;2.67;;
23614;SDS011;11985;49.404;7.734;2022-08-21T09:02:11;7.93;;;2.88;;
23614;SDS011;11985;49.404;7.734;2022-08-21T09:04:16;8.10;;;2.50;;
23614;SDS011;11985;49.404;7.734;2022-08-21T09:06:26;10.10;;;2.97;;
23614;SDS011;11985;49.404;7.734;2022-08-21T09:08:42;6.90;;;2.47;;
23614;SDS011;11985;49.404;7.734;2022-08-21T09:10:56;8.45;;;3.35;;
23614;SDS011;11985;49.404;7.734;2022-08-21T09:13:03;6.25;;;2.30;;
23614;SDS011;11985;49.404;7.734;2022-08-21T09:15:15;9.02;;;2.67;;
23614;SDS011;11985;49.404;7.734;2022-08-21T09:19:39;9.13;;;3.15;;
23614;SDS011;11985;49.404;7.734;2022-08-21T09:21:58;12.18;;;2.45;;
23614;SDS011;11985;49.404;7.734;2022-08-21T09:24:16;11.63;;;3.25;;
23614;SDS011;11985;49.404;7.734;2022-08-21T09:26:32;11.48;;;2.90;;
23614;SDS011;11985;49.404;7.734;2022-08-21T09:28:43;9.13;;;2.97;;
23614;SDS011;11985;49.404;7.734;2022-08-21T09:30:46;8.77;;;2.65;;
23614;SDS011;11985;49.404;7.734;2022-08-21T09:34:56;8.30;;;2.65;;
23614;SDS011;11985;49.404;7.734;2022-08-21T09:36:59;9.18;;;2.58;;
23614;SDS011;11985;49.404;7.734;2022-08-21T09:39:01;10.18;;;2.90;;
23614;SDS011;11985;49.404;7.734;2022-08-21T09:41:05;8.40;;;2.90;;
23614;SDS011;11985;49.404;7.734;2022-08-21T09:43:16;10.90;;;3.00;;
23614;SDS011;11985;49.404;7.734;2022-08-21T09:45:19;9.98;;;2.83;;
23614;SDS011;11985;49.404;7.734;2022-08-21T09:49:28;8.23;;;2.35;;
23614;SDS011;11985;49.404;7.734;2022-08-21T09:51:31;8.82;;;2.88;;
23614;SDS011;11985;49.404;7.734;2022-08-21T09:53:34;7.13;;;2.50;;
23614;SDS011;11985;49.404;7.734;2022-08-21T09:55:38;9.45;;;3.05;;
23614;SDS011;11985;49.404;7.734;2022-08-21T09:58:05;8.27;;;2.65;;
23614;SDS011;11985;49.404;7.734;2022-08-21T10:00:15;7.18;;;2.42;;
23614;SDS011;11985;49.404;7.734;2022-08-21T10:02:24;9.57;;;3.20;;
23614;SDS011;11985;49.404;7.734;2022-08-21T10:04:29;8.38;;;2.88;;
23614;SDS011;11985;49.404;7.734;2022-08-21T10:06:32;7.40;;;2.28;;
23614;SDS011;11985;49.404;7.734;2022-08-21T10:08:35;7.05;;;2.45;;
23614;SDS011;11985;49.404;7.734;2022-08-21T10:10:38;8.25;;;2.25;;
23614;SDS011;11985;49.404;7.734;2022-08-21T10:14:48;6.78;;;2.30;;
23614;SDS011;11985;49.404;7.734;2022-08-21T10:19:09;10.27;;;2.47;;
23614;SDS011;11985;49.404;7.734;2022-08-21T10:21:22;9.50;;;2.50;;
23614;SDS011;11985;49.404;7.734;2022-08-21T10:23:36;9.88;;;2.58;;
23614;SDS011;11985;49.404;7.734;2022-08-21T10:25:47;8.32;;;2.60;;
23614;SDS011;11985;49.404;7.734;2022-08-21T10:28:14;6.45;;;2.58;;
23614;SDS011;11985;49.404;7.734;2022-08-21T10:40:07;7.53;;;2.15;;
23614;SDS011;11985;49.404;7.734;2022-08-21T10:42:31;7.03;;;2.85;;
23614;SDS011;11985;49.404;7.734;2022-08-21T10:44:53;7.75;;;2.40;;
23614;SDS011;11985;49.404;7.734;2022-08-21T10:47:04;6.55;;;2.53;;
23614;SDS011;11985;49.404;7.734;2022-08-21T10:49:13;5.00;;;2.40;;
23614;SDS011;11985;49.404;7.734;2022-08-21T10:51:27;6.38;;;2.30;;
23614;SDS011;11985;49.404;7.734;2022-08-21T10:53:40;7.10;;;2.85;;
23614;SDS011;11985;49.404;7.734;2022-08-21T10:55:52;11.05;;;2.60;;
23614;SDS011;11985;49.404;7.734;2022-08-21T10:57:58;6.70;;;2.72;;
23614;SDS011;11985;49.404;7.734;2022-08-21T11:00:05;7.85;;;2.65;;
23614;SDS011;11985;49.404;7.734;2022-08-21T11:02:13;8.27;;;2.65;;
23614;SDS011;11985;49.404;7.734;2022-08-21T11:04:22;5.97;;;2.60;;
23614;SDS011;11985;49.404;7.734;2022-08-21T11:06:31;5.53;;;2.30;;
23614;SDS011;11985;49.404;7.734;2022-08-21T11:08:35;5.35;;;2.17;;
23614;SDS011;11985;49.404;7.734;2022-08-21T11:10:41;7.60;;;2.65;;
23614;SDS011;11985;49.404;7.734;2022-08-21T11:12:50;4.72;;;2.10;;
23614;SDS011;11985;49.404;7.734;2022-08-21T11:14:58;8.40;;;2.50;;
23614;SDS011;11985;49.404;7.734;2022-08-21T11:17:05;7.75;;;2.22;;
23614;SDS011;11985;49.404;7.734;2022-08-21T11:19:16;8.63;;;2.33;;
23614;SDS011;11985;49.404;7.734;2022-08-21T11:21:32;9.00;;;2.42;;
23614;SDS011;11985;49.404;7.734;2022-08-21T11:23:40;6.40;;;2.50;;
23614;SDS011;11985;49.404;7.734;2022-08-21T11:25:49;9.00;;;2.70;;
23614;SDS011;11985;49.404;7.734;2022-08-21T11:27:56;4.75;;;2.30;;
23614;SDS011;11985;49.404;7.734;2022-08-21T11:30:02;5.55;;;2.60;;
23614;SDS011;11985;49.404;7.734;2022-08-21T11:32:19;6.07;;;2.60;;
23614;SDS011;11985;49.404;7.734;2022-08-21T11:34:38;6.85;;;2.40;;
23614;SDS011;11985;49.404;7.734;2022-08-21T11:36:50;5.78;;;2.22;;
23614;SDS011;11985;49.404;7.734;2022-08-21T11:39:00;6.47;;;2.30;;
23614;SDS011;11985;49.404;7.734;2022-08-21T11:41:21;5.82;;;2.58;;
23614;SDS011;11985;49.404;7.734;2022-08-21T11:43:34;5.25;;;2.40;;
23614;SDS011;11985;49.404;7.734;2022-08-21T11:45:42;6.53;;;2.40;;
23614;SDS011;11985;49.404;7.734;2022-08-21T11:47:51;8.50;;;2.50;;
23614;SDS011;11985;49.404;7.734;2022-08-21T11:50:06;8.65;;;2.75;;
23614;SDS011;11985;49.404;7.734;2022-08-21T11:52:16;6.35;;;2.40;;
23614;SDS011;11985;49.404;7.734;2022-08-21T11:54:24;5.45;;;2.25;;
23614;SDS011;11985;49.404;7.734;2022-08-21T11:56:31;8.18;;;2.45;;
23614;SDS011;11985;49.404;7.734;2022-08-21T11:58:42;7.05;;;2.47;;
23614;SDS011;11985;49.404;7.734;2022-08-21T12:00:49;5.10;;;2.20;;
23614;SDS011;11985;49.404;7.734;2022-08-21T12:02:54;7.63;;;2.60;;
23614;SDS011;11985;49.404;7.734;2022-08-21T12:05:02;6.68;;;2.30;;
23614;SDS011;11985;49.404;7.734;2022-08-21T12:07:13;4.20;;;2.10;;
23614;SDS011;11985;49.404;7.734;2022-08-21T12:09:29;7.15;;;2.40;;
23614;SDS011;11985;49.404;7.734;2022-08-21T12:11:45;5.85;;;2.55;;
23614;SDS011;11985;49.404;7.734;2022-08-21T12:13:54;4.60;;;2.10;;
23614;SDS011;11985;49.404;7.734;2022-08-21T12:16:04;8.15;;;2.53;;
23614;SDS011;11985;49.404;7.734;2022-08-21T12:18:18;8.30;;;2.60;;
23614;SDS011;11985;49.404;7.734;2022-08-21T12:20:32;7.40;;;2.35;;
23614;SDS011;11985;49.404;7.734;2022-08-21T12:22:47;5.45;;;2.78;;
23614;SDS011;11985;49.404;7.734;2022-08-21T12:24:53;5.47;;;2.38;;
23614;SDS011;11985;49.404;7.734;2022-08-21T12:27:22;6.88;;;2.42;;
23614;SDS011;11985;49.404;7.734;2022-08-21T12:29:30;7.45;;;2.42;;
23614;SDS011;11985;49.404;7.734;2022-08-21T12:31:33;4.78;;;2.30;;
23614;SDS011;11985;49.404;7.734;2022-08-21T12:33:37;7.82;;;2.60;;
23614;SDS011;11985;49.404;7.734;2022-08-21T12:35:41;6.60;;;3.10;;
23614;SDS011;11985;49.404;7.734;2022-08-21T12:37:45;4.25;;;2.03;;
23614;SDS011;11985;49.404;7.734;2022-08-21T12:39:49;5.60;;;2.72;;
23614;SDS011;11985;49.404;7.734;2022-08-21T12:41:56;5.00;;;2.60;;
23614;SDS011;11985;49.404;7.734;2022-08-21T12:44:03;7.75;;;2.67;;
23614;SDS011;11985;49.404;7.734;2022-08-21T12:46:15;6.72;;;2.63;;
23614;SDS011;11985;49.404;7.734;2022-08-21T12:48:22;18.23;;;2.57;;
23614;SDS011;11985;49.404;7.734;2022-08-21T12:50:29;6.30;;;2.30;;
23614;SDS011;11985;49.404;7.734;2022-08-21T12:52:38;6.38;;;2.83;;
23614;SDS011;11985;49.404;7.734;2022-08-21T12:54:45;7.78;;;2.72;;
23614;SDS011;11985;49.404;7.734;2022-08-21T12:56:55;4.72;;;2.35;;
23614;SDS011;11985;49.404;7.734;2022-08-21T12:59:00;8.20;;;2.80;;
23614;SDS011;11985;49.404;7.734;2022-08-21T13:01:05;5.63;;;2.60;;
23614;SDS011;11985;49.404;7.734;2022-08-21T13:03:14;8.20;;;2.38;;
23614;SDS011;11985;49.404;7.734;2022-08-21T13:05:19;6.18;;;2.45;;
23614;SDS011;11985;49.404;7.734;2022-08-21T13:07:29;8.35;;;2.78;;
23614;SDS011;11985;49.404;7.734;2022-08-21T13:09:33;4.82;;;2.30;;
23614;SDS011;11985;49.404;7.734;2022-08-21T13:11:35;7.03;;;2.60;;
23614;SDS011;11985;49.404;7.734;2022-08-21T13:13:37;5.63;;;2.38;;
23614;SDS011;11985;49.404;7.734;2022-08-21T13:15:39;5.05;;;2.47;;
23614;SDS011;11985;49.404;7.734;2022-08-21T13:17:44;6.05;;;2.20;;
23614;SDS011;11985;49.404;7.734;2022-08-21T13:19:56;6.22;;;2.22;;
23614;SDS011;11985;49.404;7.734;2022-08-21T13:22:00;5.40;;;2.53;;
23614;SDS011;11985;49.404;7.734;2022-08-21T13:24:13;6.10;;;2.17;;
23614;SDS011;11985;49.404;7.734;2022-08-21T13:26:18;5.15;;;2.55;;
23614;SDS011;11985;49.404;7.734;2022-08-21T13:28:22;6.85;;;2.28;;
23614;SDS011;11985;49.404;7.734;2022-08-21T13:30:25;5.85;;;2.20;;
23614;SDS011;11985;49.404;7.734;2022-08-21T13:32:26;6.32;;;2.40;;
23614;SDS011;11985;49.404;7.734;2022-08-21T13:34:34;5.60;;;2.30;;
23614;SDS011;11985;49.404;7.734;2022-08-21T13:36:42;6.70;;;2.67;;
23614;SDS011;11985;49.404;7.734;2022-08-21T13:38:45;5.35;;;2.72;;
23614;SDS011;11985;49.404;7.734;2022-08-21T13:40:48;10.88;;;2.35;;
23614;SDS011;11985;49.404;7.734;2022-08-21T13:42:51;5.97;;;2.47;;
23614;SDS011;11985;49.404;7.734;2022-08-21T13:44:53;6.53;;;2.28;;
23614;SDS011;11985;49.404;7.734;2022-08-21T13:46:55;5.57;;;2.60;;
23614;SDS011;11985;49.404;7.734;2022-08-21T13:49:00;5.53;;;2.40;;
23614;SDS011;11985;49.404;7.734;2022-08-21T13:51:03;4.45;;;2.22;;
23614;SDS011;11985;49.404;7.734;2022-08-21T13:53:20;7.00;;;2.38;;
23614;SDS011;11985;49.404;7.734;2022-08-21T13:55:25;4.60;;;2.28;;
23614;SDS011;11985;49.404;7.734;2022-08-21T13:57:34;9.32;;;2.42;;
23614;SDS011;11985;49.404;7.734;2022-08-21T13:59:36;3.60;;;2.10;;
23614;SDS011;11985;49.404;7.734;2022-08-21T14:01:38;5.75;;;2.40;;
23614;SDS011;11985;49.404;7.734;2022-08-21T14:03:52;5.13;;;1.95;;
23614;SDS011;11985;49.404;7.734;2022-08-21T14:05:58;5.28;;;2.67;;
23614;SDS011;11985;49.404;7.734;2022-08-21T14:08:02;7.90;;;2.45;;
23614;SDS011;11985;49.404;7.734;2022-08-21T14:10:11;6.18;;;3.05;;
23614;SDS011;11985;49.404;7.734;2022-08-21T14:12:19;4.45;;;2.33;;
23614;SDS011;11985;49.404;7.734;2022-08-21T14:14:28;5.33;;;2.40;;
23614;SDS011;11985;49.404;7.734;2022-08-21T14:16:41;9.05;;;2.40;;
23614;SDS011;11985;49.404;7.734;2022-08-21T14:18:47;6.35;;;2.40;;
23614;SDS011;11985;49.404;7.734;2022-08-21T14:20:57;5.65;;;2.20;;
23614;SDS011;11985;49.404;7.734;2022-08-21T14:23:05;5.32;;;2.30;;
23614;SDS011;11985;49.404;7.734;2022-08-21T14:25:10;5.82;;;2.28;;
23614;SDS011;11985;49.404;7.734;2022-08-21T14:27:15;4.78;;;2.15;;
23614;SDS011;11985;49.404;7.734;2022-08-21T14:29:20;5.03;;;2.30;;
23614;SDS011;11985;49.404;7.734;2022-08-21T14:31:27;6.70;;;2.50;;